sensor_id;sensor_type;location;lat;lon;timestamp;temperature;humidity
2729;DHT22;1372;47.956;7.830;2022-11-09T00:01:39;12.00;99.90
2729;DHT22;1372;47.956;7.830;2022-11-09T00:04:10;12.00;99.90
2729;DHT22;1372;47.956;7.830;2022-11-09T00:06:38;12.00;99.90
2729;DHT22;1372;47.956;7.830;2022-11-09T00:09:07;12.00;99.90
2729;DHT22;1372;47.956;7.830;2022-11-09T00:11:37;12.10;99.90
2729;DHT22;1372;47.956;7.830;2022-11-09T00:14:05;12.00;99.90
2729;DHT22;1372;47.956;7.830;2022-11-09T00:16:34;12.00;99.90
2729;DHT22;1372;47.956;7.830;2022-11-09T00:19:02;12.10;99.90
2729;DHT22;1372;47.956;7.830;2022-11-09T00:21:32;12.10;99.90
2729;DHT22;1372;47.956;7.830;2022-11-09T00:24:03;12.20;99.90
2729;DHT22;1372;47.956;7.830;2022-11-09T00:26:32;12.30;99.90
2729;DHT22;1372;47.956;7.830;2022-11-09T00:29:00;12.40;99.90
2729;DHT22;1372;47.956;7.830;2022-11-09T00:31:31;12.40;99.90
2729;DHT22;1372;47.956;7.830;2022-11-09T00:34:00;12.40;99.90
2729;DHT22;1372;47.956;7.830;2022-11-09T00:36:29;12.40;99.90
2729;DHT22;1372;47.956;7.830;2022-11-09T00:38:59;12.60;99.90
2729;DHT22;1372;47.956;7.830;2022-11-09T00:41:28;12.50;99.90
2729;DHT22;1372;47.956;7.830;2022-11-09T00:43:57;12.50;99.90
2729;DHT22;1372;47.956;7.830;2022-11-09T00:46:28;12.40;99.90
2729;DHT22;1372;47.956;7.830;2022-11-09T00:48:57;12.40;99.90
2729;DHT22;1372;47.956;7.830;2022-11-09T00:51:25;12.50;99.90
2729;DHT22;1372;47.956;7.830;2022-11-09T00:53:55;12.50;99.90
2729;DHT22;1372;47.956;7.830;2022-11-09T00:56:25;12.60;99.90
2729;DHT22;1372;47.956;7.830;2022-11-09T00:58:54;12.50;99.90
2729;DHT22;1372;47.956;7.830;2022-11-09T01:01:23;12.60;99.90
2729;DHT22;1372;47.956;7.830;2022-11-09T01:03:52;12.80;99.90
2729;DHT22;1372;47.956;7.830;2022-11-09T01:06:23;12.70;99.90
2729;DHT22;1372;47.956;7.830;2022-11-09T01:08:52;12.70;99.90
2729;DHT22;1372;47.956;7.830;2022-11-09T01:11:21;12.70;99.90
2729;DHT22;1372;47.956;7.830;2022-11-09T01:13:52;12.70;99.90
2729;DHT22;1372;47.956;7.830;2022-11-09T01:16:22;12.80;99.90
2729;DHT22;1372;47.956;7.830;2022-11-09T01:18:52;12.90;99.90
2729;DHT22;1372;47.956;7.830;2022-11-09T01:21:22;13.00;99.90
2729;DHT22;1372;47.956;7.830;2022-11-09T01:23:50;13.00;99.90
2729;DHT22;1372;47.956;7.830;2022-11-09T01:26:19;12.90;99.90
2729;DHT22;1372;47.956;7.830;2022-11-09T01:28:48;12.90;99.90
2729;DHT22;1372;47.956;7.830;2022-11-09T01:31:19;12.90;99.90
2729;DHT22;1372;47.956;7.830;2022-11-09T01:33:48;12.80;99.90
2729;DHT22;1372;47.956;7.830;2022-11-09T01:36:18;12.80;99.90
2729;DHT22;1372;47.956;7.830;2022-11-09T01:38:48;12.80;99.90
2729;DHT22;1372;47.956;7.830;2022-11-09T01:41:19;12.80;99.90
2729;DHT22;1372;47.956;7.830;2022-11-09T01:44:03;12.80;99.90
2729;DHT22;1372;47.956;7.830;2022-11-09T01:46:38;12.80;99.90
2729;DHT22;1372;47.956;7.830;2022-11-09T01:49:14;12.80;99.90
2729;DHT22;1372;47.956;7.830;2022-11-09T01:51:51;12.70;99.90
2729;DHT22;1372;47.956;7.830;2022-11-09T01:54:26;12.70;99.90
2729;DHT22;1372;47.956;7.830;2022-11-09T01:56:59;12.80;99.90
2729;DHT22;1372;47.956;7.830;2022-11-09T01:59:33;12.80;99.90
2729;DHT22;1372;47.956;7.830;2022-11-09T02:02:06;12.80;99.90
2729;DHT22;1372;47.956;7.830;2022-11-09T02:04:46;12.80;99.90
2729;DHT22;1372;47.956;7.830;2022-11-09T02:07:20;12.80;99.90
2729;DHT22;1372;47.956;7.830;2022-11-09T02:09:54;12.80;99.90
2729;DHT22;1372;47.956;7.830;2022-11-09T02:12:30;12.70;99.90
2729;DHT22;1372;47.956;7.830;2022-11-09T02:15:01;12.70;99.90
2729;DHT22;1372;47.956;7.830;2022-11-09T02:17:33;12.60;99.90
2729;DHT22;1372;47.956;7.830;2022-11-09T02:20:09;12.60;99.90
2729;DHT22;1372;47.956;7.830;2022-11-09T02:22:39;12.60;99.90
2729;DHT22;1372;47.956;7.830;2022-11-09T02:25:09;12.60;99.90
2729;DHT22;1372;47.956;7.830;2022-11-09T02:27:39;12.60;99.90
2729;DHT22;1372;47.956;7.830;2022-11-09T02:30:12;12.60;99.90
2729;DHT22;1372;47.956;7.830;2022-11-09T02:32:40;12.60;99.90
2729;DHT22;1372;47.956;7.830;2022-11-09T02:35:10;12.60;99.90
2729;DHT22;1372;47.956;7.830;2022-11-09T02:37:43;12.60;99.90
2729;DHT22;1372;47.956;7.830;2022-11-09T02:40:19;12.70;99.90
2729;DHT22;1372;47.956;7.830;2022-11-09T02:42:50;12.80;99.90
2729;DHT22;1372;47.956;7.830;2022-11-09T02:45:18;12.80;99.90
2729;DHT22;1372;47.956;7.830;2022-11-09T02:47:47;12.90;99.90
2729;DHT22;1372;47.956;7.830;2022-11-09T02:50:17;12.90;99.90
2729;DHT22;1372;47.956;7.830;2022-11-09T02:52:46;12.80;99.90
2729;DHT22;1372;47.956;7.830;2022-11-09T02:55:14;12.80;99.90
2729;DHT22;1372;47.956;7.830;2022-11-09T02:57:43;12.80;99.90
2729;DHT22;1372;47.956;7.830;2022-11-09T03:00:12;12.80;99.90
2729;DHT22;1372;47.956;7.830;2022-11-09T03:02:41;12.80;99.90
2729;DHT22;1372;47.956;7.830;2022-11-09T03:05:09;12.80;99.90
2729;DHT22;1372;47.956;7.830;2022-11-09T03:07:39;12.80;99.90
2729;DHT22;1372;47.956;7.830;2022-11-09T03:10:08;12.70;99.90
2729;DHT22;1372;47.956;7.830;2022-11-09T03:12:39;12.70;99.90
2729;DHT22;1372;47.956;7.830;2022-11-09T03:15:08;12.70;99.90
2729;DHT22;1372;47.956;7.830;2022-11-09T03:17:37;12.80;99.90
2729;DHT22;1372;47.956;7.830;2022-11-09T03:20:07;12.80;99.90
2729;DHT22;1372;47.956;7.830;2022-11-09T03:22:36;12.90;99.90
2729;DHT22;1372;47.956;7.830;2022-11-09T03:25:08;12.90;99.90
2729;DHT22;1372;47.956;7.830;2022-11-09T03:27:37;12.90;99.90
2729;DHT22;1372;47.956;7.830;2022-11-09T03:30:08;12.90;99.90
2729;DHT22;1372;47.956;7.830;2022-11-09T03:32:37;13.00;99.90
2729;DHT22;1372;47.956;7.830;2022-11-09T03:35:07;13.10;99.90
2729;DHT22;1372;47.956;7.830;2022-11-09T03:37:36;13.20;99.90
2729;DHT22;1372;47.956;7.830;2022-11-09T03:40:07;13.20;99.90
2729;DHT22;1372;47.956;7.830;2022-11-09T03:42:42;13.20;99.90
2729;DHT22;1372;47.956;7.830;2022-11-09T03:45:12;13.20;99.90
2729;DHT22;1372;47.956;7.830;2022-11-09T03:47:42;13.20;99.90
2729;DHT22;1372;47.956;7.830;2022-11-09T03:50:13;13.30;99.90
2729;DHT22;1372;47.956;7.830;2022-11-09T03:52:43;13.30;99.90
2729;DHT22;1372;47.956;7.830;2022-11-09T03:55:14;13.30;99.90
2729;DHT22;1372;47.956;7.830;2022-11-09T03:57:43;13.40;99.90
2729;DHT22;1372;47.956;7.830;2022-11-09T04:00:15;13.40;99.90
2729;DHT22;1372;47.956;7.830;2022-11-09T04:02:47;13.40;99.90
2729;DHT22;1372;47.956;7.830;2022-11-09T04:05:16;13.40;99.90
2729;DHT22;1372;47.956;7.830;2022-11-09T04:07:46;13.40;99.90
2729;DHT22;1372;47.956;7.830;2022-11-09T04:10:17;13.40;99.90
2729;DHT22;1372;47.956;7.830;2022-11-09T04:12:46;13.30;99.90
2729;DHT22;1372;47.956;7.830;2022-11-09T04:15:15;13.30;99.90
2729;DHT22;1372;47.956;7.830;2022-11-09T04:17:44;13.40;99.90
2729;DHT22;1372;47.956;7.830;2022-11-09T04:20:12;13.40;99.90
2729;DHT22;1372;47.956;7.830;2022-11-09T04:22:41;13.30;99.90
2729;DHT22;1372;47.956;7.830;2022-11-09T04:25:09;13.20;99.90
2729;DHT22;1372;47.956;7.830;2022-11-09T04:27:39;13.20;99.90
2729;DHT22;1372;47.956;7.830;2022-11-09T04:30:08;13.30;99.90
2729;DHT22;1372;47.956;7.830;2022-11-09T04:32:37;13.30;99.90
2729;DHT22;1372;47.956;7.830;2022-11-09T04:35:07;13.20;99.90
2729;DHT22;1372;47.956;7.830;2022-11-09T04:37:35;13.10;99.90
2729;DHT22;1372;47.956;7.830;2022-11-09T04:40:05;13.10;99.90
2729;DHT22;1372;47.956;7.830;2022-11-09T04:42:35;13.10;99.90
2729;DHT22;1372;47.956;7.830;2022-11-09T04:45:06;13.10;99.90
2729;DHT22;1372;47.956;7.830;2022-11-09T04:47:35;13.10;99.90
2729;DHT22;1372;47.956;7.830;2022-11-09T04:50:06;13.10;99.90
2729;DHT22;1372;47.956;7.830;2022-11-09T04:52:43;13.20;99.90
2729;DHT22;1372;47.956;7.830;2022-11-09T04:55:12;13.10;99.90
2729;DHT22;1372;47.956;7.830;2022-11-09T04:57:40;13.10;99.90
2729;DHT22;1372;47.956;7.830;2022-11-09T05:00:11;13.10;99.90
2729;DHT22;1372;47.956;7.830;2022-11-09T05:02:40;13.00;99.90
2729;DHT22;1372;47.956;7.830;2022-11-09T05:05:09;13.00;99.90
2729;DHT22;1372;47.956;7.830;2022-11-09T05:07:37;13.00;99.90
2729;DHT22;1372;47.956;7.830;2022-11-09T05:10:07;12.90;99.90
2729;DHT22;1372;47.956;7.830;2022-11-09T05:12:36;12.90;99.90
2729;DHT22;1372;47.956;7.830;2022-11-09T05:15:10;12.90;99.90
2729;DHT22;1372;47.956;7.830;2022-11-09T05:17:38;12.90;99.90
2729;DHT22;1372;47.956;7.830;2022-11-09T05:20:08;13.00;99.90
2729;DHT22;1372;47.956;7.830;2022-11-09T05:22:40;13.00;99.90
2729;DHT22;1372;47.956;7.830;2022-11-09T05:25:32;12.90;99.90
2729;DHT22;1372;47.956;7.830;2022-11-09T05:28:01;13.00;99.90
2729;DHT22;1372;47.956;7.830;2022-11-09T05:30:31;13.00;99.90
2729;DHT22;1372;47.956;7.830;2022-11-09T05:33:00;13.10;99.90
2729;DHT22;1372;47.956;7.830;2022-11-09T05:35:29;13.10;99.90
2729;DHT22;1372;47.956;7.830;2022-11-09T05:37:57;13.10;99.90
2729;DHT22;1372;47.956;7.830;2022-11-09T05:40:26;13.30;99.90
2729;DHT22;1372;47.956;7.830;2022-11-09T05:42:54;13.20;99.90
2729;DHT22;1372;47.956;7.830;2022-11-09T05:45:23;13.30;99.90
2729;DHT22;1372;47.956;7.830;2022-11-09T05:48:11;13.30;99.90
2729;DHT22;1372;47.956;7.830;2022-11-09T05:50:41;13.30;99.90
2729;DHT22;1372;47.956;7.830;2022-11-09T05:53:10;13.40;99.90
2729;DHT22;1372;47.956;7.830;2022-11-09T05:55:39;13.40;99.90
2729;DHT22;1372;47.956;7.830;2022-11-09T05:58:08;13.30;99.90
2729;DHT22;1372;47.956;7.830;2022-11-09T06:00:37;13.20;99.90
2729;DHT22;1372;47.956;7.830;2022-11-09T06:03:11;13.30;99.90
2729;DHT22;1372;47.956;7.830;2022-11-09T06:05:40;13.30;99.90
2729;DHT22;1372;47.956;7.830;2022-11-09T06:08:11;13.20;99.90
2729;DHT22;1372;47.956;7.830;2022-11-09T06:10:41;13.10;99.90
2729;DHT22;1372;47.956;7.830;2022-11-09T06:13:10;13.00;99.90
2729;DHT22;1372;47.956;7.830;2022-11-09T06:15:39;13.10;99.90
2729;DHT22;1372;47.956;7.830;2022-11-09T06:18:07;13.10;99.90
2729;DHT22;1372;47.956;7.830;2022-11-09T06:20:37;13.10;99.90
2729;DHT22;1372;47.956;7.830;2022-11-09T06:23:05;13.10;99.90
2729;DHT22;1372;47.956;7.830;2022-11-09T06:25:35;13.10;99.90
2729;DHT22;1372;47.956;7.830;2022-11-09T06:28:03;13.10;99.90
2729;DHT22;1372;47.956;7.830;2022-11-09T06:30:32;13.10;99.90
2729;DHT22;1372;47.956;7.830;2022-11-09T06:33:01;13.20;99.90
2729;DHT22;1372;47.956;7.830;2022-11-09T06:35:30;13.30;99.90
2729;DHT22;1372;47.956;7.830;2022-11-09T06:38:00;13.30;99.90
2729;DHT22;1372;47.956;7.830;2022-11-09T06:40:29;13.40;99.90
2729;DHT22;1372;47.956;7.830;2022-11-09T06:42:58;13.40;99.90
2729;DHT22;1372;47.956;7.830;2022-11-09T06:45:29;13.50;99.90
2729;DHT22;1372;47.956;7.830;2022-11-09T06:47:59;13.50;99.90
2729;DHT22;1372;47.956;7.830;2022-11-09T06:50:30;13.50;99.90
2729;DHT22;1372;47.956;7.830;2022-11-09T06:53:03;13.60;99.90
2729;DHT22;1372;47.956;7.830;2022-11-09T06:55:35;13.60;99.90
2729;DHT22;1372;47.956;7.830;2022-11-09T06:58:05;13.80;99.90
2729;DHT22;1372;47.956;7.830;2022-11-09T07:00:34;13.80;99.90
2729;DHT22;1372;47.956;7.830;2022-11-09T07:03:03;13.80;99.90
2729;DHT22;1372;47.956;7.830;2022-11-09T07:05:32;13.70;99.90
2729;DHT22;1372;47.956;7.830;2022-11-09T07:08:08;13.80;99.90
2729;DHT22;1372;47.956;7.830;2022-11-09T07:10:37;13.80;99.90
2729;DHT22;1372;47.956;7.830;2022-11-09T07:13:06;13.80;99.90
2729;DHT22;1372;47.956;7.830;2022-11-09T07:15:35;13.80;99.90
2729;DHT22;1372;47.956;7.830;2022-11-09T07:18:06;13.90;99.90
2729;DHT22;1372;47.956;7.830;2022-11-09T07:20:37;13.90;99.90
2729;DHT22;1372;47.956;7.830;2022-11-09T07:23:05;13.80;99.90
2729;DHT22;1372;47.956;7.830;2022-11-09T07:25:38;13.80;99.90
2729;DHT22;1372;47.956;7.830;2022-11-09T07:28:07;13.80;99.90
2729;DHT22;1372;47.956;7.830;2022-11-09T07:30:38;13.70;99.90
2729;DHT22;1372;47.956;7.830;2022-11-09T07:33:12;13.70;99.90
2729;DHT22;1372;47.956;7.830;2022-11-09T07:35:44;13.60;99.90
2729;DHT22;1372;47.956;7.830;2022-11-09T07:38:14;13.60;99.90
2729;DHT22;1372;47.956;7.830;2022-11-09T07:40:44;13.60;99.90
2729;DHT22;1372;47.956;7.830;2022-11-09T07:43:13;13.60;99.90
2729;DHT22;1372;47.956;7.830;2022-11-09T07:45:42;13.60;99.90
2729;DHT22;1372;47.956;7.830;2022-11-09T07:48:12;13.70;99.90
2729;DHT22;1372;47.956;7.830;2022-11-09T07:50:40;13.80;99.90
2729;DHT22;1372;47.956;7.830;2022-11-09T07:53:11;13.80;99.90
2729;DHT22;1372;47.956;7.830;2022-11-09T07:55:44;13.80;99.90
2729;DHT22;1372;47.956;7.830;2022-11-09T07:58:14;13.90;99.90
2729;DHT22;1372;47.956;7.830;2022-11-09T08:00:42;13.90;99.90
2729;DHT22;1372;47.956;7.830;2022-11-09T08:03:13;13.90;99.90
2729;DHT22;1372;47.956;7.830;2022-11-09T08:05:42;14.00;99.90
2729;DHT22;1372;47.956;7.830;2022-11-09T08:08:11;14.00;99.90
2729;DHT22;1372;47.956;7.830;2022-11-09T08:10:43;14.00;99.90
2729;DHT22;1372;47.956;7.830;2022-11-09T08:13:18;14.10;99.90
2729;DHT22;1372;47.956;7.830;2022-11-09T08:15:47;14.20;99.90
2729;DHT22;1372;47.956;7.830;2022-11-09T08:18:17;14.30;99.90
2729;DHT22;1372;47.956;7.830;2022-11-09T08:20:48;14.40;99.90
2729;DHT22;1372;47.956;7.830;2022-11-09T08:23:18;14.60;99.90
2729;DHT22;1372;47.956;7.830;2022-11-09T08:25:49;14.60;99.90
2729;DHT22;1372;47.956;7.830;2022-11-09T08:28:18;14.70;99.90
2729;DHT22;1372;47.956;7.830;2022-11-09T08:30:54;14.70;99.90
2729;DHT22;1372;47.956;7.830;2022-11-09T08:33:32;14.80;99.90
2729;DHT22;1372;47.956;7.830;2022-11-09T08:36:08;14.80;99.90
2729;DHT22;1372;47.956;7.830;2022-11-09T08:38:38;14.80;99.90
2729;DHT22;1372;47.956;7.830;2022-11-09T08:41:08;14.80;99.90
2729;DHT22;1372;47.956;7.830;2022-11-09T08:43:39;14.80;99.90
2729;DHT22;1372;47.956;7.830;2022-11-09T08:46:08;14.90;99.90
2729;DHT22;1372;47.956;7.830;2022-11-09T08:48:37;14.90;99.90
2729;DHT22;1372;47.956;7.830;2022-11-09T08:51:08;14.90;99.90
2729;DHT22;1372;47.956;7.830;2022-11-09T08:53:37;14.90;99.90
2729;DHT22;1372;47.956;7.830;2022-11-09T08:56:05;15.00;99.90
2729;DHT22;1372;47.956;7.830;2022-11-09T08:58:37;15.00;99.90
2729;DHT22;1372;47.956;7.830;2022-11-09T09:01:07;15.00;99.90
2729;DHT22;1372;47.956;7.830;2022-11-09T09:03:42;15.00;99.90
2729;DHT22;1372;47.956;7.830;2022-11-09T09:06:12;15.00;99.90
2729;DHT22;1372;47.956;7.830;2022-11-09T09:08:41;15.10;99.90
2729;DHT22;1372;47.956;7.830;2022-11-09T09:11:11;15.20;99.90
2729;DHT22;1372;47.956;7.830;2022-11-09T09:13:39;15.20;99.90
2729;DHT22;1372;47.956;7.830;2022-11-09T09:16:11;15.20;99.90
2729;DHT22;1372;47.956;7.830;2022-11-09T09:18:40;15.30;99.90
2729;DHT22;1372;47.956;7.830;2022-11-09T09:21:10;15.40;99.90
2729;DHT22;1372;47.956;7.830;2022-11-09T09:23:39;15.40;99.90
2729;DHT22;1372;47.956;7.830;2022-11-09T09:26:08;15.40;99.90
2729;DHT22;1372;47.956;7.830;2022-11-09T09:28:40;15.40;99.90
2729;DHT22;1372;47.956;7.830;2022-11-09T09:31:10;15.40;99.90
2729;DHT22;1372;47.956;7.830;2022-11-09T09:33:44;15.50;99.90
2729;DHT22;1372;47.956;7.830;2022-11-09T09:36:16;15.40;99.90
2729;DHT22;1372;47.956;7.830;2022-11-09T09:38:45;15.40;99.90
2729;DHT22;1372;47.956;7.830;2022-11-09T09:41:17;15.50;99.90
2729;DHT22;1372;47.956;7.830;2022-11-09T09:43:53;15.50;99.90
2729;DHT22;1372;47.956;7.830;2022-11-09T09:46:29;15.50;99.90
2729;DHT22;1372;47.956;7.830;2022-11-09T09:49:06;15.50;99.90
2729;DHT22;1372;47.956;7.830;2022-11-09T09:51:41;15.50;99.90
2729;DHT22;1372;47.956;7.830;2022-11-09T09:54:16;15.50;99.90
2729;DHT22;1372;47.956;7.830;2022-11-09T09:56:49;15.40;99.90
2729;DHT22;1372;47.956;7.830;2022-11-09T09:59:25;15.60;99.90
2729;DHT22;1372;47.956;7.830;2022-11-09T10:02:00;15.60;99.90
2729;DHT22;1372;47.956;7.830;2022-11-09T10:04:33;15.50;99.90
2729;DHT22;1372;47.956;7.830;2022-11-09T10:07:10;15.60;99.90
2729;DHT22;1372;47.956;7.830;2022-11-09T10:09:59;15.60;99.90
2729;DHT22;1372;47.956;7.830;2022-11-09T10:12:40;15.50;99.90
2729;DHT22;1372;47.956;7.830;2022-11-09T10:15:25;15.60;99.90
2729;DHT22;1372;47.956;7.830;2022-11-09T10:18:12;15.60;99.90
2729;DHT22;1372;47.956;7.830;2022-11-09T10:24:02;15.60;99.90
2729;DHT22;1372;47.956;7.830;2022-11-09T10:26:40;15.60;99.90
2729;DHT22;1372;47.956;7.830;2022-11-09T10:29:20;15.60;99.90
2729;DHT22;1372;47.956;7.830;2022-11-09T10:31:55;15.60;99.90
2729;DHT22;1372;47.956;7.830;2022-11-09T10:34:28;15.60;99.90
2729;DHT22;1372;47.956;7.830;2022-11-09T10:37:03;15.50;99.90
2729;DHT22;1372;47.956;7.830;2022-11-09T10:39:39;15.60;99.90
2729;DHT22;1372;47.956;7.830;2022-11-09T10:42:10;15.50;99.90
2729;DHT22;1372;47.956;7.830;2022-11-09T10:44:39;15.50;99.90
2729;DHT22;1372;47.956;7.830;2022-11-09T10:47:11;15.50;99.90
2729;DHT22;1372;47.956;7.830;2022-11-09T10:49:40;15.40;99.90
2729;DHT22;1372;47.956;7.830;2022-11-09T10:52:31;15.40;99.90
2729;DHT22;1372;47.956;7.830;2022-11-09T10:55:23;15.40;99.90
2729;DHT22;1372;47.956;7.830;2022-11-09T10:57:59;15.30;99.90
2729;DHT22;1372;47.956;7.830;2022-11-09T11:00:31;15.40;99.90
2729;DHT22;1372;47.956;7.830;2022-11-09T11:03:09;15.30;99.90
2729;DHT22;1372;47.956;7.830;2022-11-09T11:05:41;15.30;99.90
2729;DHT22;1372;47.956;7.830;2022-11-09T11:08:22;15.30;99.90
2729;DHT22;1372;47.956;7.830;2022-11-09T11:11:19;15.30;99.90
2729;DHT22;1372;47.956;7.830;2022-11-09T11:14:16;15.30;99.90
2729;DHT22;1372;47.956;7.830;2022-11-09T11:16:50;15.20;99.90
2729;DHT22;1372;47.956;7.830;2022-11-09T11:19:32;15.30;99.90
2729;DHT22;1372;47.956;7.830;2022-11-09T11:22:17;15.30;99.90
2729;DHT22;1372;47.956;7.830;2022-11-09T11:24:56;15.30;99.90
2729;DHT22;1372;47.956;7.830;2022-11-09T11:27:31;15.20;99.90
2729;DHT22;1372;47.956;7.830;2022-11-09T11:30:10;15.30;99.90
2729;DHT22;1372;47.956;7.830;2022-11-09T11:32:41;15.20;99.90
2729;DHT22;1372;47.956;7.830;2022-11-09T11:35:22;15.20;99.90
2729;DHT22;1372;47.956;7.830;2022-11-09T11:38:00;15.20;99.90
2729;DHT22;1372;47.956;7.830;2022-11-09T11:40:47;15.20;99.90
2729;DHT22;1372;47.956;7.830;2022-11-09T11:43:30;15.20;99.90
2729;DHT22;1372;47.956;7.830;2022-11-09T11:46:12;15.20;99.90
2729;DHT22;1372;47.956;7.830;2022-11-09T11:49:07;15.20;99.90
2729;DHT22;1372;47.956;7.830;2022-11-09T11:51:53;15.20;99.90
2729;DHT22;1372;47.956;7.830;2022-11-09T11:54:32;15.20;99.90
2729;DHT22;1372;47.956;7.830;2022-11-09T11:57:12;15.20;99.90
2729;DHT22;1372;47.956;7.830;2022-11-09T12:00:03;15.10;99.90
2729;DHT22;1372;47.956;7.830;2022-11-09T12:03:05;15.20;99.90
2729;DHT22;1372;47.956;7.830;2022-11-09T12:09:13;15.10;99.90
2729;DHT22;1372;47.956;7.830;2022-11-09T12:12:02;15.10;99.90
2729;DHT22;1372;47.956;7.830;2022-11-09T12:14:43;15.00;99.90
2729;DHT22;1372;47.956;7.830;2022-11-09T12:17:23;15.00;99.90
2729;DHT22;1372;47.956;7.830;2022-11-09T12:20:10;15.00;99.90
2729;DHT22;1372;47.956;7.830;2022-11-09T12:22:53;15.00;99.90
2729;DHT22;1372;47.956;7.830;2022-11-09T12:25:47;15.00;99.90
2729;DHT22;1372;47.956;7.830;2022-11-09T12:28:28;15.00;99.90
2729;DHT22;1372;47.956;7.830;2022-11-09T12:31:25;14.90;99.90
2729;DHT22;1372;47.956;7.830;2022-11-09T12:34:01;14.80;99.90
2729;DHT22;1372;47.956;7.830;2022-11-09T12:36:38;14.80;99.90
2729;DHT22;1372;47.956;7.830;2022-11-09T12:39:14;14.80;99.90
2729;DHT22;1372;47.956;7.830;2022-11-09T12:41:59;14.80;99.90
2729;DHT22;1372;47.956;7.830;2022-11-09T12:44:34;14.70;99.90
2729;DHT22;1372;47.956;7.830;2022-11-09T12:47:09;14.70;99.90
2729;DHT22;1372;47.956;7.830;2022-11-09T12:49:43;14.70;99.90
2729;DHT22;1372;47.956;7.830;2022-11-09T12:52:14;14.60;99.90
2729;DHT22;1372;47.956;7.830;2022-11-09T12:54:47;14.60;99.90
2729;DHT22;1372;47.956;7.830;2022-11-09T12:57:22;14.60;99.90
2729;DHT22;1372;47.956;7.830;2022-11-09T12:59:53;14.50;99.90
2729;DHT22;1372;47.956;7.830;2022-11-09T13:02:27;14.50;99.90
2729;DHT22;1372;47.956;7.830;2022-11-09T13:05:00;14.40;99.90
2729;DHT22;1372;47.956;7.830;2022-11-09T13:07:48;14.40;99.90
2729;DHT22;1372;47.956;7.830;2022-11-09T13:10:28;14.30;99.90
2729;DHT22;1372;47.956;7.830;2022-11-09T13:13:17;14.30;99.90
2729;DHT22;1372;47.956;7.830;2022-11-09T13:16:09;14.30;99.90
2729;DHT22;1372;47.956;7.830;2022-11-09T13:18:50;14.30;99.90
2729;DHT22;1372;47.956;7.830;2022-11-09T13:21:38;14.30;99.90
2729;DHT22;1372;47.956;7.830;2022-11-09T13:27:36;14.20;99.90
2729;DHT22;1372;47.956;7.830;2022-11-09T13:33:30;14.20;99.90
2729;DHT22;1372;47.956;7.830;2022-11-09T13:36:17;14.20;99.90
2729;DHT22;1372;47.956;7.830;2022-11-09T13:41:58;14.20;99.90
2729;DHT22;1372;47.956;7.830;2022-11-09T13:44:30;14.10;99.90
2729;DHT22;1372;47.956;7.830;2022-11-09T13:47:02;14.10;99.90
2729;DHT22;1372;47.956;7.830;2022-11-09T13:49:44;14.10;99.90
2729;DHT22;1372;47.956;7.830;2022-11-09T13:52:40;14.10;99.90
2729;DHT22;1372;47.956;7.830;2022-11-09T13:55:23;14.00;99.90
2729;DHT22;1372;47.956;7.830;2022-11-09T13:57:56;14.00;99.90
2729;DHT22;1372;47.956;7.830;2022-11-09T14:00:30;14.00;99.90
2729;DHT22;1372;47.956;7.830;2022-11-09T14:03:03;14.00;99.90
2729;DHT22;1372;47.956;7.830;2022-11-09T14:05:43;14.00;99.90
2729;DHT22;1372;47.956;7.830;2022-11-09T14:08:20;14.00;99.90
2729;DHT22;1372;47.956;7.830;2022-11-09T14:11:06;13.90;99.90
2729;DHT22;1372;47.956;7.830;2022-11-09T14:14:00;13.90;99.90
2729;DHT22;1372;47.956;7.830;2022-11-09T14:16:49;13.90;99.90
2729;DHT22;1372;47.956;7.830;2022-11-09T14:19:30;13.90;99.90
2729;DHT22;1372;47.956;7.830;2022-11-09T14:22:12;13.90;99.90
2729;DHT22;1372;47.956;7.830;2022-11-09T14:24:42;13.90;99.90
2729;DHT22;1372;47.956;7.830;2022-11-09T14:27:34;13.90;99.90
2729;DHT22;1372;47.956;7.830;2022-11-09T14:30:14;13.90;99.90
2729;DHT22;1372;47.956;7.830;2022-11-09T14:32:48;13.90;99.90
2729;DHT22;1372;47.956;7.830;2022-11-09T14:35:21;13.90;99.90
2729;DHT22;1372;47.956;7.830;2022-11-09T14:37:53;13.90;99.90
2729;DHT22;1372;47.956;7.830;2022-11-09T14:40:24;13.90;99.90
2729;DHT22;1372;47.956;7.830;2022-11-09T14:42:56;13.90;99.90
2729;DHT22;1372;47.956;7.830;2022-11-09T14:45:27;13.80;99.90
2729;DHT22;1372;47.956;7.830;2022-11-09T14:47:58;13.80;99.90
2729;DHT22;1372;47.956;7.830;2022-11-09T14:50:30;13.80;99.90
2729;DHT22;1372;47.956;7.830;2022-11-09T14:53:03;13.70;99.90
2729;DHT22;1372;47.956;7.830;2022-11-09T14:55:33;13.80;99.90
2729;DHT22;1372;47.956;7.830;2022-11-09T14:58:10;13.80;99.90
2729;DHT22;1372;47.956;7.830;2022-11-09T15:00:39;13.80;99.90
2729;DHT22;1372;47.956;7.830;2022-11-09T15:03:25;13.80;99.90
2729;DHT22;1372;47.956;7.830;2022-11-09T15:06:12;13.80;99.90
2729;DHT22;1372;47.956;7.830;2022-11-09T15:08:51;13.80;99.90
2729;DHT22;1372;47.956;7.830;2022-11-09T15:11:30;13.70;99.90
2729;DHT22;1372;47.956;7.830;2022-11-09T15:14:10;13.70;99.90
2729;DHT22;1372;47.956;7.830;2022-11-09T15:16:41;13.70;99.90
2729;DHT22;1372;47.956;7.830;2022-11-09T15:19:22;13.70;99.90
2729;DHT22;1372;47.956;7.830;2022-11-09T15:21:56;13.70;99.90
2729;DHT22;1372;47.956;7.830;2022-11-09T15:24:27;13.60;99.90
2729;DHT22;1372;47.956;7.830;2022-11-09T15:26:56;13.50;99.90
2729;DHT22;1372;47.956;7.830;2022-11-09T15:29:35;13.50;99.90
2729;DHT22;1372;47.956;7.830;2022-11-09T15:32:14;13.50;99.90
2729;DHT22;1372;47.956;7.830;2022-11-09T15:34:52;13.50;99.90
2729;DHT22;1372;47.956;7.830;2022-11-09T15:37:28;13.50;99.90
2729;DHT22;1372;47.956;7.830;2022-11-09T15:39:58;13.50;99.90
2729;DHT22;1372;47.956;7.830;2022-11-09T15:42:28;13.40;99.90
2729;DHT22;1372;47.956;7.830;2022-11-09T15:44:59;13.40;99.90
2729;DHT22;1372;47.956;7.830;2022-11-09T15:47:31;13.30;99.90
2729;DHT22;1372;47.956;7.830;2022-11-09T15:50:06;13.40;99.90
2729;DHT22;1372;47.956;7.830;2022-11-09T15:52:44;13.30;99.90
2729;DHT22;1372;47.956;7.830;2022-11-09T15:55:14;13.20;99.90
2729;DHT22;1372;47.956;7.830;2022-11-09T15:57:44;13.10;99.90
2729;DHT22;1372;47.956;7.830;2022-11-09T16:00:18;13.10;99.90
2729;DHT22;1372;47.956;7.830;2022-11-09T16:02:48;13.00;99.90
2729;DHT22;1372;47.956;7.830;2022-11-09T16:05:17;13.00;99.90
2729;DHT22;1372;47.956;7.830;2022-11-09T16:07:51;13.00;99.90
2729;DHT22;1372;47.956;7.830;2022-11-09T16:10:21;13.10;99.90
2729;DHT22;1372;47.956;7.830;2022-11-09T16:12:51;13.10;99.90
2729;DHT22;1372;47.956;7.830;2022-11-09T16:15:23;13.00;99.90
2729;DHT22;1372;47.956;7.830;2022-11-09T16:17:52;13.00;99.90
2729;DHT22;1372;47.956;7.830;2022-11-09T16:20:21;13.00;99.90
2729;DHT22;1372;47.956;7.830;2022-11-09T16:22:54;13.00;99.90
2729;DHT22;1372;47.956;7.830;2022-11-09T16:25:25;13.00;99.90
2729;DHT22;1372;47.956;7.830;2022-11-09T16:27:54;13.00;99.90
2729;DHT22;1372;47.956;7.830;2022-11-09T16:30:22;12.90;99.90
2729;DHT22;1372;47.956;7.830;2022-11-09T16:32:51;12.90;99.90
2729;DHT22;1372;47.956;7.830;2022-11-09T16:35:20;12.90;99.90
2729;DHT22;1372;47.956;7.830;2022-11-09T16:37:56;12.90;99.90
2729;DHT22;1372;47.956;7.830;2022-11-09T16:40:26;12.90;99.90
2729;DHT22;1372;47.956;7.830;2022-11-09T16:42:58;12.90;99.90
2729;DHT22;1372;47.956;7.830;2022-11-09T16:45:27;12.90;99.90
2729;DHT22;1372;47.956;7.830;2022-11-09T16:48:02;12.80;99.90
2729;DHT22;1372;47.956;7.830;2022-11-09T16:50:32;12.80;99.90
2729;DHT22;1372;47.956;7.830;2022-11-09T16:53:02;12.80;99.90
2729;DHT22;1372;47.956;7.830;2022-11-09T16:55:31;12.80;99.90
2729;DHT22;1372;47.956;7.830;2022-11-09T16:57:59;12.70;99.90